Hovedside
METAR-TAF:

METAR-TAF

Lufthavner :

Ventspils, Latvia

breddegrad: 57-21-28N, lengdegrad: 021-32-39E, høyde over havet: 6 m

Gjeldene værobservasjon

Denne rapporten ble laget for 16 minutter siden, klokken 10:20 UTC
Vind 18 kt fra Sørvest, skiftende mellom Sør-sørvest og Vest
Temperatur 17°C
Luftfuktighet 72%
Trykk 1002 hPa
Sikt 10 km eller mer
Spredte skyer i en høyde av 2100 ft
Brutte skyer i en høyde av 3800 ft

METAR: EVVA 251020Z AUTO 23018KT 200V260 9999 SCT021 BKN038 17/12 Q1002

Tid: 13:36 (10:36 UTC)


TAF: fraværende

Værobservasjoner og værvarsel for over 4000 flyplasser (METAR- og TAF-rapporter).

Tilgjengelige stasjoner er representert av de røde og gule prikkene på kartet.

Hold musepekeren over prikken for å se navnet på stasjonen.

Klikk så for å se værobservasjoner og -varsler.

For å forandre kartet kan du klikke på den grønne knappen med svart kryss for å zoome inn, på den grønne knappen med strek for å zoome ut, eller på de grønne pilene for å se tilstøtende kart.


METAR-TAF: